Latest Weather Observations for Lameroo AWS

IDS60801

Issued at 9:02 am CDT Sunday 1 March 2015 (issued every 30 minutes, with the page automatically refreshed every 10 minutes)

About weather observations | Map of weather stations | Latest weather observations for SA | Other Formats
Station Details ID: 025562 Name: AUSTIN PLAINS Lat: -35.38 Lon: 140.54 Height: 110.08 m
Data from the previous 72 hours. | See also: Recent months at Lameroo AWS
Date/Time
CDT
Temp
°C
App
Temp
°C
Dew
Point
Rel
Hum
%
Delta-T
°C
Wind Press
QNH
hPa
Press
MSL
hPa
Rain
since 9 am
mm
Dir
 
Spd
km/h
Gust
km/h
Spd
kts
Gust
kts
01/09:00am 17.1 13.2 10.9 67 3.3 SSW 22 30 12 16 1015.2 1014.7 0.0
01/08:30am 15.7 12.4 10.9 73 2.6 SW 19 24 10 13 1014.8 1014.3 0.0
01/08:00am 13.4 11.5 10.6 83 1.5 WSW 11 15 6 8 1014.4 1013.9 0.0
01/07:30am 11.4 9.7 9.8 90 0.8 WSW 9 11 5 6 1014.0 1013.5 0.0
01/07:00am 11.1 9.2 9.2 88 1.0 SW 9 11 5 6 1013.5 1013.1 0.0
01/06:30am 10.8 8.5 9.1 89 0.8 SW 11 13 6 7 1013.1 1012.7 0.0
01/06:00am 11.1 8.5 9.4 89 0.9 SW 13 15 7 8 1012.7 1012.3 0.0
01/05:30am 11.7 9.6 9.6 87 1.1 SW 11 13 6 7 1012.4 1012.0 0.0
01/05:00am 12.6 9.9 10.3 86 1.2 SW 15 17 8 9 1011.9 1011.5 0.0
01/04:30am 13.4 10.8 10.8 84 1.4 SSW 15 20 8 11 1011.6 1011.2 0.0
01/04:00am 13.9 10.7 11.1 83 1.5 SSW 19 24 10 13 1011.1 1010.7 0.0
01/03:30am 14.4 10.7 11.6 83 1.5 SSW 22 28 12 15 1011.0 1010.6 0.0
01/03:00am 14.7 11.6 12.2 85 1.4 SSW 20 26 11 14 1010.7 1010.3 0.0
01/02:30am 14.9 11.9 12.6 86 1.3 SW 20 26 11 14 1010.8 1010.4 0.0
01/02:00am 14.6 11.7 12.3 86 1.3 SSW 19 22 10 12 1010.7 1010.3 0.0
01/01:30am 14.8 11.6 11.9 83 1.6 SW 20 26 11 14 1010.7 1010.3 0.0
01/01:00am 15.2 10.2 12.3 83 1.6 SW 30 39 16 21 1010.5 1010.1 0.0
01/12:30am 15.4 11.2 12.3 82 1.7 SW 26 37 14 20 1010.4 1010.0 0.0
01/12:00am 15.9 10.6 12.5 80 1.9 SSW 32 44 17 24 1010.1 1009.7 0.0
 
Date/Time
CDT
Temp
°C
App
Temp
°C
Dew
Point
Rel
Hum
%
Delta-T
°C
Wind Press
QNH
hPa
Press
MSL
hPa
Rain
since 9 am
mm
Dir
 
Spd
km/h
Gust
km/h
Spd
kts
Gust
kts
28/11:30pm 16.4 10.3 12.9 80 2.0 SSW 37 48 20 26 1009.7 1009.3 0.0
28/11:00pm 16.9 11.3 13.4 80 2.0 SSW 35 48 19 26 1009.6 1009.2 0.0
28/10:30pm 17.2 13.6 14.1 82 1.8 SSW 26 35 14 19 1009.4 1009.0 0.0
28/10:00pm 18.1 12.5 14.4 79 2.1 SSW 37 46 20 25 1008.9 1008.5 0.0
28/09:30pm 18.5 13.6 15.4 82 1.8 SSW 35 48 19 26 1008.6 1008.2 0.0
28/09:00pm 18.5 14.2 15.4 82 1.8 SSW 32 46 17 25 1007.9 1007.4 0.0
28/08:30pm 18.8 14.5 16.0 84 1.7 SW 33 44 18 24 1007.2 1006.7 0.0
28/08:10pm 18.9 15.7 16.3 85 1.6 SW 28 48 15 26 1007.0 1006.5 0.0
28/08:00pm 19.2 15.4 16.8 86 1.5 SW 32 46 17 25 1006.6 1006.1 0.0
28/07:30pm 20.5 16.8 15.9 75 2.8 SSW 30 39 16 21 1005.9 1005.4 0.0
28/07:00pm 21.8 17.2 15.2 66 3.9 SSW 33 43 18 23 1005.6 1005.1 0.0
28/06:30pm 22.6 17.6 15.0 62 4.5 SSW 35 44 19 24 1005.1 1004.6 0.0
28/06:00pm 25.3 18.6 13.5 48 7.0 SSW 41 56 22 30 1004.0 1003.6 0.0
28/05:30pm 26.5 18.4 12.2 41 8.3 SW 46 61 25 33 1003.3 1002.9 0.0
28/05:00pm 28.4 19.8 11.5 35 9.8 SW 48 61 26 33 1003.0 1002.6 0.0
28/04:30pm 31.7 23.7 11.0 28 12.1 SW 44 54 24 29 1001.8 1001.4 0.0
28/04:00pm 34.7 27.7 8.4 20 14.9 WSW 35 54 19 29 1001.6 1001.2 0.0
28/03:45pm 36.5 29.3 9.2 19 15.8 SW 37 56 20 30 1001.4 1001.0 0.0
28/03:30pm 36.2 27.8 8.9 19 15.7 WSW 43 54 23 29 1001.5 1001.1 0.0
28/03:17pm 37.3 29.0 6.3 15 17.2 WSW 39 59 21 32 1001.2 1000.8 0.0
28/03:01pm 37.9 29.5 5.8 14 17.7 WNW 39 57 21 31 1001.3 1000.9 0.0
28/03:00pm 38.0 29.3 5.9 14 17.8 WNW 41 57 22 31 1001.3 1000.9 0.0
28/02:31pm 37.1 30.0 6.2 15 17.1 WNW 33 57 18 31 1001.5 1001.1 0.0
28/02:30pm 37.3 30.4 6.3 15 17.3 WNW 32 48 17 26 1001.5 1001.1 0.0
28/02:18pm 37.7 32.0 8.5 17 16.8 WNW 28 59 15 32 1001.7 1001.3 0.0
28/02:00pm 36.7 30.3 8.5 18 16.1 W 32 44 17 24 1002.1 1001.7 0.0
28/01:39pm 37.2 30.7 8.9 18 16.3 WNW 33 54 18 29 1002.3 1001.9 0.0
28/01:30pm 36.9 30.0 8.7 18 16.3 WNW 35 50 19 27 1002.7 1002.3 0.0
28/01:25pm 37.0 30.5 8.8 18 16.2 W 33 50 18 27 1002.8 1002.4 0.0
28/01:19pm 36.5 29.7 7.5 17 16.3 W 33 50 18 27 1002.9 1002.5 0.0
28/01:00pm 36.3 29.0 7.4 17 16.2 WNW 35 59 19 32 1003.1 1002.7 0.0
28/12:33pm 36.6 29.8 9.2 19 15.8 WNW 35 56 19 30 1003.4 1003.0 0.0
28/12:30pm 36.1 29.4 9.6 20 15.4 NW 35 52 19 28 1003.6 1003.2 0.0
28/12:00pm 34.9 28.3 10.0 22 14.5 NW 35 44 19 24 1004.1 1003.7 0.0
28/11:30am 33.7 26.8 10.3 24 13.6 NNW 37 50 20 27 1004.4 1003.9 0.0
28/11:00am 32.2 26.0 11.4 28 12.2 NNW 35 43 19 23 1004.6 1004.1 0.0
28/10:30am 32.2 26.2 10.8 27 12.5 N 33 44 18 24 1004.7 1004.2 0.0
28/10:00am 30.1 24.9 10.1 29 11.4 N 28 37 15 20 1004.9 1004.4 0.0
28/09:30am 27.9 22.0 9.2 31 10.4 NNE 30 37 16 20 1004.9 1004.4 0.0
28/09:00am 27.3 22.2 9.2 32 10.0 NNE 26 35 14 19 1005.3 1004.8 0.0
28/08:30am 25.8 21.1 9.2 35 9.1 NE 24 32 13 17 1005.2 1004.7 0.0
28/08:00am 24.1 19.6 10.0 41 7.8 NE 24 32 13 17 1005.0 1004.5 0.0
28/07:30am 23.9 19.5 9.1 39 8.1 ENE 22 30 12 16 1005.0 1004.5 0.0
28/07:00am 24.1 19.0 9.3 39 8.1 ENE 26 32 14 17 1004.6 1004.1 0.0
28/06:30am 23.8 19.1 10.8 44 7.3 ENE 26 33 14 18 1004.5 1004.0 0.0
28/06:00am 23.9 20.7 11.9 47 6.9 E 20 28 11 15 1004.7 1004.2 0.0
28/05:30am 23.9 19.1 11.6 46 7.0 ENE 28 35 15 19 1004.4 1003.9 0.0
28/05:00am 23.5 19.2 12.2 49 6.5 ENE 26 33 14 18 1004.6 1004.1 0.0
28/04:30am 23.5 19.9 13.1 52 6.1 E 24 30 13 16 1004.7 1004.2 0.0
28/04:00am 23.5 21.0 13.4 53 5.9 E 19 24 10 13 1005.5 1005.0 0.0
28/03:30am 23.5 22.2 13.7 54 5.8 ESE 13 17 7 9 1006.5 1006.0 0.0
28/03:00am 23.6 22.4 14.0 55 5.7 ESE 13 17 7 9 1006.8 1006.3 0.0
28/02:30am 23.4 22.7 14.4 57 5.3 E 11 13 6 7 1007.2 1006.7 0.0
28/02:00am 23.2 22.6 14.7 58 5.1 SE 11 11 6 6 1007.8 1007.3 0.0
28/01:30am 23.4 24.3 16.0 63 4.5 ESE 6 9 3 5 1008.8 1008.4 0.0
28/01:00am 24.2 23.8 14.0 53 6.0 ESE 9 11 5 6 1008.8 1008.4 0.0
28/12:30am 24.9 22.5 12.8 47 7.0 SE 17 22 9 12 1008.7 1008.3 0.0
28/12:00am 24.9 22.0 12.8 47 7.0 S 20 26 11 14 1008.5 1008.1 0.0
 
Date/Time
CDT
Temp
°C
App
Temp
°C
Dew
Point
Rel
Hum
%
Delta-T
°C
Wind Press
QNH
hPa
Press
MSL
hPa
Rain
since 9 am
mm
Dir
 
Spd
km/h
Gust
km/h
Spd
kts
Gust
kts
27/11:30pm 25.1 21.8 12.7 46 7.2 S 22 30 12 16 1008.5 1008.1 0.0
27/11:00pm 25.4 21.9 12.3 44 7.6 S 22 28 12 15 1008.5 1008.1 0.0
27/10:30pm 26.4 23.4 12.5 42 8.1 S 20 28 11 15 1008.7 1008.3 0.0
27/10:00pm 27.2 23.8 11.3 37 9.1 S 20 32 11 17 1008.3 1007.9 0.0
27/09:30pm 27.6 24.1 10.8 35 9.6 SSE 20 24 11 13 1008.3 1007.9 0.0
27/09:00pm 28.1 24.2 10.8 34 9.9 SSE 22 30 12 16 1008.0 1007.5 0.0
27/08:30pm 28.3 24.0 10.9 34 10.0 SSE 24 32 13 17 1007.6 1007.1 0.0
27/08:00pm 28.7 24.6 11.3 34 10.0 S 24 30 13 16 1007.6 1007.1 0.0
27/07:30pm 29.4 24.6 11.5 33 10.4 S 28 35 15 19 1007.1 1006.6 0.0
27/07:00pm 31.1 28.2 11.0 29 11.7 SSW 17 20 9 11 1006.6 1006.1 0.0
27/06:30pm 31.6 30.2 10.9 28 12.0 SW 9 13 5 7 1006.4 1005.9 0.0
27/06:00pm 32.0 30.3 11.2 28 12.2 SW 11 15 6 8 1006.6 1006.1 0.0
27/05:30pm 32.3 30.9 10.9 27 12.5 WSW 9 17 5 9 1006.6 1006.1 0.0
27/05:00pm 32.5 30.4 11.1 27 12.5 WSW 13 19 7 10 1006.7 1006.2 0.0
27/04:30pm 33.1 32.1 11.0 26 13.0 SW 7 17 4 9 1006.6 1006.1 0.0
27/04:00pm 32.6 31.5 10.6 26 12.8 WSW 7 15 4 8 1006.8 1006.3 0.0
27/03:30pm 32.9 30.7 10.9 26 12.9 WSW 13 22 7 12 1007.2 1006.7 0.0
27/03:00pm 32.0 30.9 10.7 27 12.4 SW 7 17 4 9 1007.7 1007.2 0.0
27/02:30pm 31.6 30.0 10.3 27 12.3 WNW 9 17 5 9 1008.1 1007.6 0.0
27/02:00pm 30.9 30.0 11.3 30 11.4 SW 7 15 4 8 1008.7 1008.3 0.0
27/01:30pm 29.8 28.3 10.4 30 11.1 N 9 20 5 11 1008.9 1008.5 0.0
27/01:00pm 29.8 28.8 10.9 31 10.9 NW 7 17 4 9 1009.4 1009.0 0.0
27/12:30pm 28.9 27.5 11.0 33 10.3 N 9 19 5 10 1009.9 1009.5 0.0
27/12:00pm 27.7 26.4 11.3 36 9.4 NNE 9 17 5 9 1010.4 1010.0 0.0
27/11:30am 26.5 26.1 12.9 43 8.0 N 7 17 4 9 1010.8 1010.4 0.0
27/11:00am 25.3 24.7 12.2 44 7.5 NE 7 17 4 9 1011.1 1010.7 0.0
27/10:30am 24.7 24.7 12.3 46 7.1 NNE 4 9 2 5 1011.4 1011.0 0.0
27/10:00am 23.4 22.7 12.1 49 6.4 NE 7 11 4 6 1011.6 1011.2 0.0
27/09:30am 22.2 21.3 12.7 55 5.4 ENE 9 15 5 8 1011.7 1011.3 0.0
27/09:00am 20.4 18.5 13.1 63 4.2 E 15 19 8 10 1011.5 1011.1 0.0
27/08:30am 18.6 16.2 12.8 69 3.3 E 17 19 9 10 1011.4 1011.0 0.0
27/08:00am 17.3 15.8 13.0 76 2.4 E 13 19 7 10 1011.3 1010.9 0.0
27/07:30am 15.8 14.9 12.5 81 1.8 ESE 9 13 5 7 1010.8 1010.4 0.0
27/07:00am 14.0 13.1 11.2 83 1.5 SE 7 7 4 4 1010.7 1010.3 0.0
27/06:30am 14.3 13.0 11.3 82 1.6 ESE 9 11 5 6 1010.2 1009.8 0.0
27/06:00am 14.1 12.3 10.9 81 1.7 SE 11 13 6 7 1009.9 1009.5 0.0
27/05:30am 14.0 12.9 10.6 80 1.8 SE 7 9 4 5 1010.0 1009.6 0.0
27/05:00am 14.4 12.5 10.6 78 2.0 SE 11 13 6 7 1010.2 1009.8 0.0
27/04:30am 14.6 12.7 10.6 77 2.1 SE 11 11 6 6 1009.9 1009.5 0.0
27/04:00am 14.9 13.8 10.5 75 2.3 SE 7 9 4 5 1010.2 1009.8 0.0
27/03:30am 15.2 13.6 10.2 72 2.6 SSE 9 11 5 6 1010.4 1010.0 0.0
27/03:00am 16.1 14.6 10.6 70 2.9 SSE 9 11 5 6 1010.4 1010.0 0.0
27/02:30am 16.6 14.3 10.5 67 3.3 SSE 13 15 7 8 1010.7 1010.3 0.0
27/02:00am 16.7 13.9 10.1 65 3.5 S 15 19 8 10 1011.0 1010.6 0.0
27/01:30am 17.2 14.0 9.9 62 3.9 S 17 20 9 11 1010.9 1010.5 0.0
27/01:00am 17.8 14.6 9.9 60 4.2 S 17 20 9 11 1011.2 1010.8 0.0
27/12:30am 18.3 15.1 9.9 58 4.5 SSW 17 20 9 11 1011.5 1011.1 0.0
27/12:00am 18.9 16.3 10.7 59 4.5 SSW 15 20 8 11 1011.8 1011.4 0.0
 
Date/Time
CDT
Temp
°C
App
Temp
°C
Dew
Point
Rel
Hum
%
Delta-T
°C
Wind Press
QNH
hPa
Press
MSL
hPa
Rain
since 9 am
mm
Dir
 
Spd
km/h
Gust
km/h
Spd
kts
Gust
kts
26/11:30pm 19.7 16.5 11.2 58 4.7 SSW 19 24 10 13 1011.9 1011.5 0.0
26/11:00pm 20.3 17.8 11.2 56 5.0 SSW 15 19 8 10 1011.6 1011.2 0.0
26/10:30pm 20.0 17.9 11.0 56 4.9 SSW 13 15 7 8 1011.3 1010.9 0.0
26/10:00pm 20.6 19.1 10.7 53 5.4 SW 9 11 5 6 1011.5 1011.1 0.0
26/09:30pm 22.0 20.3 11.1 50 6.1 SW 11 15 6 8 1011.5 1011.1 0.0
26/09:00pm 23.5 21.1 11.5 47 6.8 SSW 15 20 8 11 1011.0 1010.6 0.0
26/08:30pm 24.4 21.6 11.4 44 7.4 SSW 17 22 9 12 1010.8 1010.4 0.0
26/08:00pm 25.4 21.7 11.6 42 7.9 SW 22 32 12 17 1010.6 1010.2 0.0
26/07:30pm 26.9 22.9 11.8 39 8.7 SSW 24 32 13 17 1010.3 1009.9 0.0
26/07:00pm 28.1 23.3 11.6 36 9.5 SSW 28 35 15 19 1009.9 1009.5 0.0
26/06:30pm 29.3 24.4 11.4 33 10.4 SW 28 37 15 20 1009.6 1009.2 0.0
26/06:00pm 31.1 26.3 11.5 30 11.5 SW 28 39 15 21 1009.2 1008.8 0.0
26/05:30pm 31.5 27.2 10.8 28 12.0 SW 24 37 13 20 1009.1 1008.7 0.0
26/05:00pm 31.4 26.6 10.2 27 12.2 SW 26 39 14 21 1009.0 1008.6 0.0
26/04:30pm 31.2 27.5 10.0 27 12.1 SSW 20 30 11 16 1009.2 1008.8 0.0
26/04:00pm 30.9 27.6 9.7 27 12.0 SSW 17 28 9 15 1009.4 1009.0 0.0
26/03:30pm 31.4 27.6 9.0 25 12.6 SW 19 32 10 17 1009.7 1009.3 0.0
26/03:00pm 30.8 27.8 9.1 26 12.2 SW 15 28 8 15 1010.0 1009.6 0.0
26/02:30pm 30.0 26.4 8.4 26 12.0 SSW 17 26 9 14 1010.6 1010.2 0.0
26/02:00pm 29.8 26.0 7.7 25 12.1 SW 17 26 9 14 1010.9 1010.5 0.0
26/01:30pm 28.6 25.4 6.7 25 11.7 SSW 13 20 7 11 1011.2 1010.8 0.0
26/01:00pm 27.6 24.4 5.2 24 11.6 S 11 24 6 13 1011.7 1011.3 0.0
26/12:30pm 27.0 23.8 5.3 25 11.2 SW 11 19 6 10 1012.1 1011.7 0.0
26/12:00pm 26.3 22.4 5.3 26 10.8 SSW 15 24 8 13 1012.6 1012.2 0.0
26/11:30am 24.8 21.3 7.0 32 9.3 SSW 15 22 8 12 1013.0 1012.6 0.0
26/11:00am 23.4 20.4 7.5 36 8.4 SSW 13 19 7 10 1013.1 1012.7 0.0
26/10:30am 22.0 19.3 8.9 43 7.0 SSW 13 19 7 10 1013.0 1012.6 0.0
26/10:00am 20.6 18.3 10.4 52 5.6 SSW 13 19 7 10 1012.9 1012.5 0.0
26/09:30am 19.2 17.6 11.7 62 4.2 SSW 11 15 6 8 1013.0 1012.6 0.0

Other Formats:

Comma delimited format used in spreadsheet applications
http://www.bom.gov.au/fwo/IDS60801/IDS60801.94690.axf

JavaScript Object Notation format (JSON) in row-major order
http://www.bom.gov.au/fwo/IDS60801/IDS60801.94690.json